Time;durP1;ratioP1;P1;durP2;ratioP2;P2;SDS_P1;SDS_P2;PMS_P1;PMS_P2;Temp;Humidity;BMP_temperature;BMP_pressure;BME280_temperature;BME280_humidity;BME280_pressure;Samples;Min_cycle;Max_cycle;Signal;HPM_P1;HPM_P2
2021/05/19 00:00:08;;;;;;;1.50;1.20;;;;;;;5.86;86.85;100770.28;5047108;28;20049;-89
2021/05/19 00:02:36;;;;;;;1.75;1.20;;;;;;;5.81;86.16;100768.31;5051478;28;20477;-89
2021/05/19 00:05:05;;;;;;;1.23;1.08;;;;;;;5.85;86.54;100772.16;5041603;28;20056;-89
2021/05/19 00:07:32;;;;;;;1.40;1.25;;;;;;;5.82;85.78;100761.84;5054819;28;20045;-88
2021/05/19 00:10:07;;;;;;;1.42;1.25;;;;;;;5.78;85.73;100753.41;5041444;28;20049;-89
2021/05/19 00:12:35;;;;;;;1.42;1.20;;;;;;;5.82;85.69;100772.66;5052493;28;20370;-89
2021/05/19 00:15:09;;;;;;;1.40;1.30;;;;;;;5.76;85.78;100769.06;5070230;28;20501;-89
2021/05/19 00:17:43;;;;;;;1.92;1.30;;;;;;;5.73;86.24;100782.22;5044549;28;20044;-89
2021/05/19 00:20:18;;;;;;;1.67;1.30;;;;;;;5.68;86.28;100765.97;5053937;28;20052;-89
2021/05/19 00:22:50;;;;;;;1.67;1.10;;;;;;;5.75;85.39;100767.41;5046478;28;20053;-90
2021/05/19 00:25:46;;;;;;;1.50;1.40;;;;;;;5.75;86.07;100777.41;5037796;28;20064;-89
2021/05/19 00:28:19;;;;;;;1.20;1.10;;;;;;;5.76;85.75;100763.66;5046235;28;20049;-89
2021/05/19 00:30:55;;;;;;;1.95;1.10;;;;;;;5.72;85.18;100765.22;5070601;28;20064;-89
2021/05/19 00:33:28;;;;;;;1.33;1.17;;;;;;;5.67;85.36;100758.91;5050390;28;20060;-89
2021/05/19 00:36:01;;;;;;;1.30;1.20;;;;;;;5.26;86.87;100713.97;5053221;28;20508;-89
2021/05/19 00:38:33;;;;;;;1.55;1.10;;;;;;;5.55;87.14;100767.06;5046301;28;20140;-89
2021/05/19 00:41:08;;;;;;;1.92;1.10;;;;;;;5.59;86.23;100763.66;5055218;28;20052;-86
2021/05/19 00:43:41;;;;;;;1.13;1.00;;;;;;;5.47;87.21;100762.06;5052673;28;20072;-88
2021/05/19 00:46:09;;;;;;;1.55;1.10;;;;;;;5.52;86.38;100764.88;5045203;28;20053;-89
2021/05/19 00:48:42;;;;;;;1.50;1.17;;;;;;;5.55;86.94;100764.38;5055486;28;20049;-89
2021/05/19 00:51:15;;;;;;;1.65;1.20;;;;;;;5.52;86.66;100762.97;5044911;28;20052;-89
2021/05/19 00:53:47;;;;;;;2.25;1.13;;;;;;;5.53;86.60;100761.13;5045966;28;20048;-89
2021/05/19 00:56:21;;;;;;;1.60;1.33;;;;;;;5.48;88.01;100758.31;5063449;28;20049;-88
2021/05/19 00:58:57;;;;;;;1.70;1.25;;;;;;;5.49;86.95;100766.16;5051758;28;20049;-90
2021/05/19 01:01:24;;;;;;;1.25;1.10;;;;;;;5.27;86.87;100730.97;5045155;28;20053;-89
2021/05/19 01:04:08;;;;;;;1.98;1.30;;;;;;;5.20;86.98;100741.91;5048030;28;20072;-89
2021/05/19 01:07:02;;;;;;;1.85;1.30;;;;;;;5.32;87.69;100768.00;5053900;28;20044;-89
2021/05/19 01:09:34;;;;;;;2.40;1.35;;;;;;;5.27;87.44;100764.19;5042751;28;20045;-89
2021/05/19 01:12:13;;;;;;;1.50;1.40;;;;;;;5.25;87.53;100760.91;5053534;28;20059;-89
2021/05/19 01:14:46;;;;;;;2.80;1.50;;;;;;;5.27;87.24;100766.88;5049346;28;20045;-89
2021/05/19 01:17:20;;;;;;;1.60;1.48;;;;;;;5.22;87.93;100774.03;5037346;28;20048;-89
2021/05/19 01:19:53;;;;;;;1.60;1.42;;;;;;;5.21;87.57;100759.75;5069021;28;20057;-88
2021/05/19 01:22:29;;;;;;;1.75;1.50;;;;;;;5.28;87.25;100775.78;5061882;28;20075;-88
2021/05/19 01:25:03;;;;;;;2.15;1.40;;;;;;;5.17;88.06;100766.69;5052833;28;20044;-90
2021/05/19 01:27:36;;;;;;;1.73;1.30;;;;;;;4.81;87.43;100713.97;5052626;28;20516;-89
2021/05/19 01:30:10;;;;;;;1.90;1.55;;;;;;;5.06;87.73;100757.59;5069362;28;20515;-89
2021/05/19 01:32:42;;;;;;;2.20;1.60;;;;;;;5.14;87.63;100760.94;5069087;28;20045;-90
2021/05/19 01:35:15;;;;;;;2.63;1.60;;;;;;;5.19;87.60;100764.59;5052395;28;20049;-90
2021/05/19 01:37:49;;;;;;;2.50;1.50;;;;;;;5.28;86.39;100776.59;5063816;28;20041;-89
2021/05/19 01:40:23;;;;;;;2.28;1.50;;;;;;;5.19;87.40;100772.69;5045862;28;20041;-88
2021/05/19 01:42:52;;;;;;;4.35;1.40;;;;;;;5.14;86.62;100766.34;5034052;28;20056;-88
2021/05/19 01:45:59;;;;;;;1.58;1.40;;;;;;;5.10;87.69;100771.41;5042559;28;20048;-89
2021/05/19 01:48:34;;;;;;;1.50;1.40;;;;;;;5.07;88.09;100775.41;5069068;28;20049;-89
2021/05/19 01:51:06;;;;;;;2.38;1.70;;;;;;;4.98;88.47;100771.44;5042170;28;20052;-88
2021/05/19 01:53:41;;;;;;;1.67;1.40;;;;;;;5.06;87.13;100773.75;5043092;28;20116;-89
2021/05/19 01:56:40;;;;;;;2.90;2.00;;;;;;;5.07;88.27;100780.00;5045644;28;20060;-89
2021/05/19 01:59:16;;;;;;;2.58;1.77;;;;;;;5.06;87.83;100772.97;5048267;28;20041;-88
2021/05/19 02:02:21;;;;;;;1.73;1.60;;;;;;;4.99;88.37;100780.38;5051336;28;20061;-89
2021/05/19 02:04:49;;;;;;;1.98;1.50;;;;;;;5.00;88.37;100777.44;5037425;28;20045;-88
2021/05/19 02:07:22;;;;;;;2.38;1.70;;;;;;;4.98;87.91;100776.03;5041257;28;20048;-88
2021/05/19 02:09:56;;;;;;;2.53;1.90;;;;;;;5.01;88.31;100783.63;5034502;28;20383;-89
2021/05/19 02:12:29;;;;;;;3.20;1.80;;;;;;;4.85;88.71;100761.78;5053369;28;20057;-88
2021/05/19 02:14:59;;;;;;;1.80;1.40;;;;;;;4.97;89.01;100783.28;5050853;28;20049;-89
2021/05/19 02:17:33;;;;;;;1.65;1.55;;;;;;;5.01;88.00;100786.34;5052121;28;20049;-89
2021/05/19 02:20:08;;;;;;;2.05;1.83;;;;;;;4.99;88.24;100789.28;5065015;28;20045;-89
2021/05/19 02:22:41;;;;;;;2.35;1.80;;;;;;;5.00;88.63;100782.00;5051680;28;20044;-90
2021/05/19 02:25:16;;;;;;;2.30;1.80;;;;;;;5.00;88.43;100790.09;5062318;28;20045;-89
2021/05/19 02:27:51;;;;;;;2.10;1.70;;;;;;;4.90;88.17;100769.13;5046277;28;20053;-89
2021/05/19 02:30:48;;;;;;;2.03;1.73;;;;;;;4.99;88.44;100789.28;5048832;28;20060;-88
2021/05/19 02:33:24;;;;;;;2.50;1.83;;;;;;;4.99;88.45;100791.97;5044742;28;20494;-89
2021/05/19 02:35:55;;;;;;;2.35;1.60;;;;;;;5.02;87.78;100794.19;5062359;28;20042;-89
2021/05/19 02:38:28;;;;;;;2.33;1.90;;;;;;;4.94;89.34;100797.25;5036894;28;20061;-88
2021/05/19 02:40:59;;;;;;;2.53;2.00;;;;;;;4.91;88.34;100790.47;5046656;28;20493;-89
2021/05/19 02:43:32;;;;;;;2.28;1.90;;;;;;;4.92;88.89;100788.59;5060327;28;20060;-88
2021/05/19 02:46:06;;;;;;;3.10;2.13;;;;;;;4.85;88.54;100787.94;5034621;28;20049;-89
2021/05/19 02:49:08;;;;;;;2.60;1.88;;;;;;;4.93;89.06;100798.34;5052212;28;20049;-89
2021/05/19 02:51:41;;;;;;;2.88;2.20;;;;;;;4.93;88.49;100798.34;5046653;28;20369;-88
2021/05/19 02:54:13;;;;;;;2.33;2.00;;;;;;;4.94;88.62;100786.47;5044459;28;20049;-89
2021/05/19 02:56:47;;;;;;;2.47;2.00;;;;;;;5.01;88.66;100786.34;5064431;28;20049;-89
2021/05/19 02:59:20;;;;;;;2.28;1.90;;;;;;;5.01;88.08;100791.72;5067934;28;20053;-89
2021/05/19 03:01:52;;;;;;;2.88;2.15;;;;;;;4.95;89.63;100793.50;5047885;28;20405;-89
2021/05/19 03:04:25;;;;;;;2.75;1.80;;;;;;;4.96;89.17;100794.31;5040094;28;20052;-88
2021/05/19 03:06:58;;;;;;;2.65;2.10;;;;;;;4.91;88.19;100781.56;5052931;28;20063;-88
2021/05/19 03:09:26;;;;;;;;;;;;;;;4.92;88.38;100792.09;5056044;28;20398;-89
2021/05/19 03:11:59;;;;;;;2.88;2.20;;;;;;;4.93;88.96;100793.75;5063544;28;19920;-88
2021/05/19 03:14:32;;;;;;;2.58;1.85;;;;;;;4.90;89.12;100790.72;5055904;28;20044;-89
2021/05/19 03:17:02;;;;;;;3.33;2.38;;;;;;;4.82;89.17;100780.28;5054146;28;20056;-89
2021/05/19 03:19:35;;;;;;;3.08;2.15;;;;;;;4.99;89.42;100804.66;5051565;28;20046;-89
2021/05/19 03:22:03;;;;;;;2.10;1.80;;;;;;;4.99;89.22;100807.34;5051749;28;20052;-89
2021/05/19 03:24:36;;;;;;;2.80;1.98;;;;;;;4.96;88.49;100805.94;5047378;28;20072;-89
2021/05/19 03:27:10;;;;;;;2.33;1.90;;;;;;;5.01;89.23;100806.03;5055842;28;20048;-86
2021/05/19 03:29:42;;;;;;;1.88;1.65;;;;;;;5.07;88.98;100815.06;5055194;28;20512;-90
2021/05/19 03:32:15;;;;;;;2.40;1.90;;;;;;;5.01;88.98;100805.22;5047049;28;20052;-88
2021/05/19 03:34:48;;;;;;;1.70;1.60;;;;;;;5.02;88.67;100804.97;5071216;28;20053;-89
2021/05/19 03:37:21;;;;;;;2.25;1.88;;;;;;;4.98;89.48;100817.31;5068746;28;20049;-88
2021/05/19 03:39:51;;;;;;;2.22;1.73;;;;;;;4.96;88.61;100813.19;5035772;28;20041;-88
2021/05/19 03:42:19;;;;;;;1.95;1.77;;;;;;;5.04;88.92;100821.75;5053225;28;20053;-90
2021/05/19 03:44:52;;;;;;;3.83;2.40;;;;;;;5.08;89.75;100820.22;5052576;28;20056;-89
2021/05/19 03:47:20;;;;;;;1.95;1.75;;;;;;;5.11;88.55;100818.94;5054479;28;20052;-88
2021/05/19 03:49:52;;;;;;;2.10;1.80;;;;;;;5.12;89.53;100823.25;5054017;28;20049;-89
2021/05/19 03:52:20;;;;;;;2.58;2.13;;;;;;;5.20;89.73;100825.56;5040410;28;20534;-89
2021/05/19 03:54:53;;;;;;;3.10;1.90;;;;;;;5.28;88.22;100817.06;5053004;28;20056;-89
2021/05/19 03:57:44;;;;;;;1.92;1.60;;;;;;;5.30;88.31;100816.03;5050889;28;20049;-89
2021/05/19 04:00:22;;;;;;;2.13;1.80;;;;;;;5.32;88.57;100816.59;5062157;28;20049;-90
2021/05/19 04:02:50;;;;;;;2.22;1.80;;;;;;;5.34;87.94;100799.09;5047042;28;20045;-89
2021/05/19 04:05:47;;;;;;;2.47;1.90;;;;;;;5.48;88.43;100813.13;5053638;28;20409;-89
2021/05/19 04:08:20;;;;;;;3.22;2.00;;;;;;;5.47;88.54;100816.06;5044657;28;20414;-90
2021/05/19 04:11:19;;;;;;;1.70;1.58;;;;;;;5.57;88.01;100827.88;5045021;28;21414;-89
2021/05/19 04:13:53;;;;;;;2.25;1.58;;;;;;;5.66;87.84;100822.06;5035754;28;20061;-89
2021/05/19 04:16:20;;;;;;;2.30;1.90;;;;;;;5.67;88.20;100831.81;5036269;28;20049;-89
2021/05/19 04:18:56;;;;;;;1.67;1.58;;;;;;;5.66;88.25;100828.28;5042311;28;20049;-89
2021/05/19 04:21:34;;;;;;;1.60;1.50;;;;;;;5.61;87.89;100820.13;5058442;28;20056;-90
2021/05/19 04:24:08;;;;;;;1.55;1.40;;;;;;;5.70;88.18;100829.44;5049536;28;20048;-89
2021/05/19 04:27:11;;;;;;;1.52;1.42;;;;;;;5.69;87.91;100835.06;5038758;28;20497;-90
2021/05/19 04:29:44;;;;;;;3.00;1.55;;;;;;;5.71;87.99;100841.88;5045969;28;20049;-89
2021/05/19 04:32:17;;;;;;;2.28;1.50;;;;;;;5.74;88.37;100835.16;5040480;28;20396;-90
2021/05/19 04:34:50;;;;;;;1.50;1.40;;;;;;;5.79;88.26;100836.06;5053948;28;20050;-89
2021/05/19 04:37:22;;;;;;;1.55;1.40;;;;;;;5.90;87.85;100839.78;5052771;28;20052;-89
2021/05/19 04:39:50;;;;;;;1.60;1.50;;;;;;;6.08;87.86;100849.56;5049585;28;20057;-89
2021/05/19 04:42:23;;;;;;;1.40;1.30;;;;;;;6.14;87.51;100842.34;5057761;28;20045;-89
2021/05/19 04:44:51;;;;;;;1.20;1.10;;;;;;;6.29;87.09;100839.06;5039788;28;20049;-90
2021/05/19 04:47:29;;;;;;;1.20;1.10;;;;;;;6.35;87.15;100850.78;5055766;28;20036;-90
2021/05/19 04:49:57;;;;;;;1.10;1.00;;;;;;;6.36;87.09;100842.41;5043478;28;20905;-89
2021/05/19 04:52:29;;;;;;;1.10;1.00;;;;;;;6.58;86.96;100849.75;5069168;28;20049;-89
2021/05/19 04:55:00;;;;;;;1.00;0.90;;;;;;;6.64;86.14;100855.00;5042046;28;20045;-91
2021/05/19 04:57:33;;;;;;;1.60;1.15;;;;;;;6.61;85.54;100847.34;5079226;28;20401;-89
2021/05/19 05:00:08;;;;;;;1.10;1.00;;;;;;;6.74;86.69;100857.03;5066416;28;20053;-90
2021/05/19 05:02:37;;;;;;;1.23;1.10;;;;;;;6.78;86.88;100866.28;5048802;28;20053;-89
2021/05/19 05:05:11;;;;;;;0.82;0.82;;;;;;;6.80;86.47;100874.94;5070234;28;20131;-91
2021/05/19 05:07:44;;;;;;;1.15;1.05;;;;;;;6.85;86.77;100857.16;5034993;28;20049;-90
2021/05/19 05:10:17;;;;;;;1.00;0.90;;;;;;;6.90;86.79;100873.44;5062069;28;20049;-90
2021/05/19 05:12:50;;;;;;;0.98;0.90;;;;;;;6.85;86.37;100868.81;5069489;28;20053;-90
2021/05/19 05:15:23;;;;;;;0.90;0.90;;;;;;;6.93;86.60;100881.06;5054918;28;20060;-90
2021/05/19 05:18:18;;;;;;;0.98;0.90;;;;;;;7.24;85.92;100876.06;5045698;28;20053;-90
2021/05/19 05:20:50;;;;;;;1.17;0.80;;;;;;;7.29;84.39;100870.69;5033132;28;20053;-90
2021/05/19 05:23:23;;;;;;;0.70;0.70;;;;;;;7.53;83.96;100863.09;5032471;28;20498;-89
2021/05/19 05:25:51;;;;;;;0.70;0.70;;;;;;;7.32;85.29;100875.59;5053849;28;20658;-90
2021/05/19 05:28:23;;;;;;;0.82;0.73;;;;;;;7.41;85.54;100873.25;5048248;28;20064;-90
2021/05/19 05:30:57;;;;;;;0.70;0.70;;;;;;;7.47;85.02;100869.53;5069029;28;20045;-89
2021/05/19 05:33:30;;;;;;;0.73;0.73;;;;;;;7.35;84.09;100849.88;5045258;28;20057;-90
2021/05/19 05:35:57;;;;;;;0.77;0.77;;;;;;;7.45;84.46;100868.97;5039687;28;20428;-90
2021/05/19 05:38:25;;;;;;;0.70;0.70;;;;;;;7.55;83.99;100879.09;5042872;28;20068;-89
2021/05/19 05:40:53;;;;;;;0.82;0.82;;;;;;;7.55;84.70;100865.56;5048257;28;20060;-88
2021/05/19 05:43:27;;;;;;;0.70;0.70;;;;;;;7.60;84.17;100879.97;5034821;28;20053;-89
2021/05/19 05:46:00;;;;;;;0.60;0.60;;;;;;;7.74;83.57;100879.56;5044512;28;20057;-91
2021/05/19 05:48:33;;;;;;;0.60;0.60;;;;;;;7.65;84.81;100876.47;5049423;28;20056;-91
2021/05/19 05:51:01;;;;;;;0.82;0.73;;;;;;;7.90;84.00;100880.50;5052224;28;20053;-91
2021/05/19 05:53:37;;;;;;;0.60;0.60;;;;;;;7.95;82.91;100884.09;5052473;28;20052;-90
2021/05/19 05:57:07;;;;;;;0.60;0.60;;;;;;;8.08;83.68;100888.28;5068642;28;20041;-90
2021/05/19 05:59:40;;;;;;;0.70;0.70;;;;;;;8.03;83.95;100879.28;5055135;28;20057;-90
2021/05/19 06:02:09;;;;;;;0.63;0.63;;;;;;;8.03;83.75;100890.13;5062079;28;20059;-90
2021/05/19 06:04:41;;;;;;;0.70;0.70;;;;;;;8.25;83.30;100892.75;5046754;28;20045;-90
2021/05/19 06:07:14;;;;;;;0.60;0.60;;;;;;;8.48;84.00;100886.19;5061142;28;20056;-90
2021/05/19 06:09:52;;;;;;;0.70;0.70;;;;;;;8.88;84.65;100887.53;5053322;28;20119;-90
2021/05/19 06:12:20;;;;;;;0.75;0.63;;;;;;;9.11;83.87;100890.88;5076596;28;20048;-89
2021/05/19 06:14:53;;;;;;;0.60;0.60;;;;;;;9.13;80.31;100886.81;5038257;28;20068;-90
2021/05/19 06:17:26;;;;;;;0.50;0.50;;;;;;;9.21;80.37;100884.66;5047216;28;20053;-90
2021/05/19 06:19:59;;;;;;;0.40;0.40;;;;;;;8.98;78.45;100843.31;5051223;28;20053;-90
2021/05/19 06:22:27;;;;;;;0.50;0.50;;;;;;;9.17;79.27;100874.34;5049323;28;20053;-90
2021/05/19 06:24:58;;;;;;;0.50;0.50;;;;;;;9.43;79.47;100887.19;5072016;28;20036;-86
2021/05/19 06:27:34;;;;;;;0.55;0.50;;;;;;;9.38;77.50;100873.59;5037680;28;20053;-88
2021/05/19 06:30:03;;;;;;;0.50;0.50;;;;;;;9.47;78.57;100886.41;5071806;28;20464;-90
2021/05/19 06:32:31;;;;;;;0.50;0.50;;;;;;;9.74;77.82;100895.44;5058644;28;20061;-90
2021/05/19 06:35:05;;;;;;;0.40;0.40;;;;;;;9.83;76.56;100899.25;5035655;28;20053;-89
2021/05/19 06:37:32;;;;;;;0.40;0.40;;;;;;;9.68;76.21;100898.13;5044116;28;20056;-91
2021/05/19 06:40:06;;;;;;;0.68;0.45;;;;;;;9.36;77.28;100890.97;5053287;28;20489;-89
2021/05/19 06:42:34;;;;;;;0.32;0.32;;;;;;;9.44;77.49;100888.81;5041612;28;20057;-89
2021/05/19 06:45:02;;;;;;;;;;;;;;;9.58;78.18;100905.44;5052246;28;20060;-89
2021/05/19 06:47:39;;;;;;;0.40;0.40;;;;;;;9.41;77.46;100897.53;5057244;28;19921;-88
2021/05/19 06:50:12;;;;;;;0.40;0.40;;;;;;;9.54;75.76;100907.88;5046370;28;20060;-89
2021/05/19 06:52:40;;;;;;;0.40;0.40;;;;;;;9.37;76.38;100918.94;5041087;28;20065;-89
2021/05/19 06:55:13;;;;;;;0.30;0.30;;;;;;;9.37;77.32;100916.22;5057379;28;20064;-88
2021/05/19 06:57:48;;;;;;;0.50;0.50;;;;;;;9.30;76.75;100912.97;5065850;28;20041;-89
2021/05/19 07:00:22;;;;;;;0.35;0.35;;;;;;;9.37;78.34;100910.81;5048100;28;20049;-85
2021/05/19 07:02:55;;;;;;;0.50;0.50;;;;;;;9.82;76.09;100916.66;5061846;28;20045;-88
2021/05/19 07:05:45;;;;;;;0.40;0.40;;;;;;;9.79;75.76;100906.28;5043406;28;20049;-89
2021/05/19 07:08:45;;;;;;;0.90;0.40;;;;;;;9.84;75.74;100909.03;5038174;28;20045;-89
2021/05/19 07:11:19;;;;;;;0.40;0.40;;;;;;;9.69;75.92;100907.09;5067406;28;20044;-89
2021/05/19 07:13:53;;;;;;;0.50;0.50;;;;;;;9.51;77.01;100909.25;5082513;28;20060;-87
2021/05/19 07:16:27;;;;;;;0.50;0.50;;;;;;;9.56;77.18;100911.16;5064928;28;20060;-90
2021/05/19 07:19:00;;;;;;;0.40;0.40;;;;;;;9.72;76.39;100911.19;5079746;28;20079;-87
2021/05/19 07:21:33;;;;;;;0.90;0.40;;;;;;;9.73;72.52;100910.91;5064170;28;20051;-86
2021/05/19 07:24:32;;;;;;;0.30;0.30;;;;;;;9.68;72.98;100919.03;5067647;28;20045;-88
2021/05/19 07:27:05;;;;;;;0.20;0.20;;;;;;;9.96;71.59;100892.47;5081311;28;21187;-87
2021/05/19 07:29:38;;;;;;;0.30;0.30;;;;;;;10.79;74.12;100915.03;5064842;28;20055;-87
2021/05/19 07:32:22;;;;;;;;;;;;;;;10.63;74.61;100914.25;5065636;28;20052;-88
2021/05/19 07:34:51;;;;;;;0.30;0.30;;;;;;;10.76;70.65;100908.25;5068985;28;19949;-87
2021/05/19 07:37:24;;;;;;;0.32;0.32;;;;;;;10.63;71.55;100920.50;5064397;28;20044;-88
2021/05/19 07:39:55;;;;;;;0.25;0.25;;;;;;;10.70;73.66;100912.06;5060394;28;20455;-88
2021/05/19 07:42:24;;;;;;;0.40;0.40;;;;;;;10.82;73.98;100915.28;5060485;28;20178;-89
2021/05/19 07:44:57;;;;;;;0.40;0.40;;;;;;;10.80;71.61;100916.66;5060103;28;20052;-89
2021/05/19 07:47:24;;;;;;;0.40;0.40;;;;;;;10.57;69.73;100908.00;5061194;28;20051;-89
2021/05/19 07:49:52;;;;;;;0.32;0.32;;;;;;;10.41;68.65;100923.50;5078402;28;20061;-89
2021/05/19 07:52:19;;;;;;;0.38;0.38;;;;;;;10.54;70.41;100906.63;5061311;28;20052;-88
2021/05/19 07:54:47;;;;;;;0.40;0.40;;;;;;;10.61;68.42;100914.53;5061987;28;20049;-89
2021/05/19 07:57:16;;;;;;;0.30;0.30;;;;;;;10.84;68.60;100915.00;5061125;28;20095;-88
2021/05/19 08:00:07;;;;;;;0.52;0.40;;;;;;;10.95;67.22;100922.09;5064620;28;20067;-89
2021/05/19 08:02:39;;;;;;;0.30;0.30;;;;;;;11.23;66.75;100917.91;5073227;28;20052;-88
2021/05/19 08:05:17;;;;;;;0.30;0.30;;;;;;;11.37;66.13;100904.50;5079625;28;20075;-86
2021/05/19 08:07:47;;;;;;;0.30;0.30;;;;;;;11.66;63.19;100916.63;5064958;28;20302;-90
2021/05/19 08:10:13;;;;;;;0.30;0.30;;;;;;;11.43;63.64;100918.09;5060972;28;20048;-89
2021/05/19 08:12:40;;;;;;;0.20;0.20;;;;;;;11.25;65.34;100903.19;5063385;28;20052;-88
2021/05/19 08:15:12;;;;;;;0.32;0.32;;;;;;;11.53;64.00;100909.84;5061214;28;20056;-89
2021/05/19 08:17:38;;;;;;;0.30;0.30;;;;;;;11.84;65.37;100910.50;5062086;28;20056;-89
2021/05/19 08:20:08;;;;;;;;;;;;;;;11.77;62.05;100909.22;5062931;28;20056;-87
2021/05/19 08:22:41;;;;;;;0.30;0.30;;;;;;;12.04;62.83;100909.59;5060485;28;20452;-90
2021/05/19 08:25:14;;;;;;;0.30;0.30;;;;;;;11.87;61.25;100906.41;5065960;28;20609;-88
2021/05/19 08:27:51;;;;;;;0.30;0.30;;;;;;;11.62;62.85;100910.09;5060315;28;20064;-87
2021/05/19 08:30:24;;;;;;;0.32;0.30;;;;;;;11.80;62.20;100903.97;5063644;28;20045;-90
2021/05/19 08:33:01;;;;;;;0.25;0.25;;;;;;;11.47;62.38;100913.72;5061740;28;20075;-88
2021/05/19 08:35:34;;;;;;;0.32;0.32;;;;;;;11.49;64.40;100915.06;5077066;28;20061;-88
2021/05/19 08:38:07;;;;;;;0.75;0.40;;;;;;;11.84;63.21;100898.78;5058802;28;20056;-87
2021/05/19 08:40:40;;;;;;;0.30;0.30;;;;;;;11.98;57.47;100905.25;5061579;28;20052;-86
2021/05/19 08:43:13;;;;;;;0.40;0.40;;;;;;;11.82;60.56;100899.09;5064105;28;20056;-87
2021/05/19 08:45:40;;;;;;;;;;;;;;;11.73;65.19;100909.75;5063770;28;20064;-90
2021/05/19 08:48:17;;;;;;;0.60;0.30;;;;;;;11.88;62.46;100897.13;5060232;28;19924;-89
2021/05/19 08:50:46;;;;;;;0.30;0.30;;;;;;;12.24;59.90;100902.34;5076266;28;20049;-89
2021/05/19 08:53:16;;;;;;;0.20;0.20;;;;;;;12.34;58.30;100896.78;5060900;28;20059;-89
2021/05/19 08:55:49;;;;;;;0.38;0.38;;;;;;;12.82;59.14;100904.25;5062581;28;20049;-87
2021/05/19 08:58:22;;;;;;;0.50;0.40;;;;;;;12.69;59.59;100866.69;5060783;28;20481;-88
2021/05/19 09:00:55;;;;;;;1.20;0.30;;;;;;;12.21;57.72;100862.78;5062854;28;20664;-88
2021/05/19 09:03:36;;;;;;;0.40;0.30;;;;;;;12.58;56.02;100899.59;5062058;28;20056;-90
2021/05/19 09:06:10;;;;;;;2.15;0.40;;;;;;;12.99;59.86;100908.44;5063212;28;21390;-90
2021/05/19 09:08:47;;;;;;;0.45;0.22;;;;;;;13.24;57.76;100888.19;5075305;28;20053;-93
2021/05/19 09:11:15;;;;;;;0.43;0.35;;;;;;;13.56;57.23;100905.84;5075432;28;20052;-89
2021/05/19 09:13:48;;;;;;;0.20;0.20;;;;;;;13.19;58.33;100913.69;5062871;28;20064;-89
2021/05/19 09:16:29;;;;;;;0.20;0.20;;;;;;;12.60;59.35;100907.47;5078255;28;20053;-86
2021/05/19 09:19:01;;;;;;;0.30;0.30;;;;;;;12.40;59.75;100911.19;5058812;28;20044;-90
2021/05/19 09:21:38;;;;;;;0.73;0.30;;;;;;;12.48;61.24;100907.03;5077800;28;20425;-90
2021/05/19 09:24:10;;;;;;;0.65;0.20;;;;;;;12.40;57.05;100901.13;5061109;28;20048;-88
2021/05/19 09:26:51;;;;;;;0.20;0.20;;;;;;;12.62;60.76;100905.25;5057415;28;20051;-90
2021/05/19 09:29:25;;;;;;;0.40;0.35;;;;;;;12.45;60.71;100916.63;5076446;28;20076;-87
2021/05/19 09:32:01;;;;;;;0.20;0.20;;;;;;;12.74;60.88;100910.34;5074280;28;20069;-88
2021/05/19 09:34:37;;;;;;;0.73;0.47;;;;;;;13.05;60.58;100901.81;5057848;28;20071;-88
2021/05/19 09:37:36;;;;;;;0.30;0.30;;;;;;;12.69;57.29;100897.56;5058738;28;20052;-88
2021/05/19 09:40:07;;;;;;;0.20;0.20;;;;;;;12.82;55.01;100898.78;5076913;28;20063;-88
2021/05/19 09:42:49;;;;;;;0.30;0.30;;;;;;;13.45;58.20;100886.06;5076365;28;20059;-87
2021/05/19 09:45:21;;;;;;;0.20;0.20;;;;;;;14.29;55.50;100885.31;5058994;28;20049;-89
2021/05/19 09:47:56;;;;;;;0.30;0.30;;;;;;;14.28;52.41;100883.69;5058560;28;20067;-89
2021/05/19 09:50:40;;;;;;;0.20;0.20;;;;;;;14.27;51.11;100887.53;5060214;28;20520;-88
2021/05/19 09:53:14;;;;;;;0.20;0.20;;;;;;;14.25;55.62;100900.72;5059680;28;20048;-87
2021/05/19 09:56:06;;;;;;;0.20;0.20;;;;;;;14.27;54.28;100889.47;5063187;28;20056;-88
2021/05/19 09:58:40;;;;;;;0.30;0.30;;;;;;;13.88;49.81;100894.19;5074760;27;20048;-87
2021/05/19 10:01:14;;;;;;;0.30;0.30;;;;;;;13.86;51.66;100896.38;5057391;28;20119;-88
2021/05/19 10:03:46;;;;;;;0.30;0.30;;;;;;;14.34;55.48;100900.03;5058553;28;20728;-88
2021/05/19 10:06:23;;;;;;;0.30;0.30;;;;;;;14.01;51.76;100895.34;5057705;28;20060;-86
2021/05/19 10:08:51;;;;;;;0.30;0.30;;;;;;;14.34;52.66;100892.63;5064099;28;20052;-90
2021/05/19 10:11:26;;;;;;;0.28;0.28;;;;;;;14.38;57.08;100892.84;5058595;28;20056;-87
2021/05/19 10:13:54;;;;;;;0.30;0.30;;;;;;;14.22;48.85;100884.88;5058027;28;20064;-89
2021/05/19 10:16:22;;;;;;;0.40;0.30;;;;;;;14.51;52.47;100888.50;5059374;28;20056;-89
2021/05/19 10:18:56;;;;;;;0.30;0.30;;;;;;;14.36;52.46;100895.06;5059045;28;20055;-88
2021/05/19 10:21:31;;;;;;;0.30;0.30;;;;;;;14.16;51.56;100890.75;5058000;28;20053;-89
2021/05/19 10:24:07;;;;;;;0.30;0.30;;;;;;;13.64;53.09;100894.25;5061745;28;20500;-89
2021/05/19 10:27:01;;;;;;;0.88;0.30;;;;;;;13.71;54.89;100900.19;5061821;28;20512;-88
2021/05/19 10:29:51;;;;;;;0.25;0.25;;;;;;;14.26;52.75;100891.38;5057528;28;20044;-87
2021/05/19 10:32:39;;;;;;;0.40;0.30;;;;;;;14.54;53.72;100887.91;5059997;28;21022;-89
2021/05/19 10:35:09;;;;;;;0.50;0.38;;;;;;;14.23;52.84;100874.75;5057046;28;20056;-90
2021/05/19 10:37:49;;;;;;;0.43;0.30;;;;;;;13.86;51.37;100896.38;5056648;28;20044;-89
2021/05/19 10:40:29;;;;;;;0.40;0.40;;;;;;;13.19;53.91;100880.09;5058158;28;20057;-90
2021/05/19 10:43:04;;;;;;;0.40;0.38;;;;;;;13.24;56.76;100880.00;5061717;28;20049;-89
2021/05/19 10:45:48;;;;;;;0.28;0.28;;;;;;;13.20;57.32;100884.41;5061964;28;20063;-88
2021/05/19 10:48:31;;;;;;;0.30;0.30;;;;;;;13.30;57.46;100891.69;5058665;28;20055;-88
2021/05/19 10:51:28;;;;;;;0.30;0.30;;;;;;;13.20;56.51;100879.78;5058115;28;20044;-90
2021/05/19 10:57:28;;;;;;;0.28;0.28;;;;;;;13.09;56.74;100883.72;5073655;28;20492;-89
2021/05/19 11:00:21;;;;;;;0.30;0.30;;;;;;;13.87;53.57;100865.19;5082178;28;20036;-90
2021/05/19 11:03:14;;;;;;;0.30;0.30;;;;;;;14.38;54.12;100882.69;5079881;28;20590;-89
2021/05/19 11:06:05;;;;;;;0.40;0.40;;;;;;;14.83;54.58;100870.41;5063207;28;20048;-89
2021/05/19 11:08:39;;;;;;;0.35;0.30;;;;;;;15.19;52.34;100884.22;5052216;28;20048;-90
2021/05/19 11:11:29;;;;;;;0.30;0.30;;;;;;;15.02;51.61;100851.94;5057794;28;20053;-90
2021/05/19 11:14:13;;;;;;;0.40;0.40;;;;;;;14.73;51.06;100860.47;5070984;28;20056;-88
2021/05/19 11:16:54;;;;;;;0.55;0.40;;;;;;;15.34;56.86;100854.84;5083993;28;20417;-90
2021/05/19 11:19:29;;;;;;;0.30;0.30;;;;;;;15.13;50.14;100858.84;5079212;28;20059;-89
2021/05/19 11:22:03;;;;;;;1.17;0.40;;;;;;;15.12;50.16;100848.16;5058193;28;20045;-89
2021/05/19 11:24:53;;;;;;;0.30;0.30;;;;;;;15.23;49.65;100860.56;5060790;28;20044;-89
2021/05/19 11:27:27;;;;;;;0.40;0.38;;;;;;;15.09;47.42;100849.63;5067346;28;20045;-91
2021/05/19 11:30:52;;;;;;;1.42;0.47;;;;;;;15.15;45.50;100853.06;5089583;27;20646;-90
2021/05/19 11:33:27;;;;;;;0.40;0.40;;;;;;;15.44;47.16;100849.94;5081696;28;20053;-90
2021/05/19 11:36:00;;;;;;;0.30;0.30;;;;;;;15.74;49.19;100844.06;5071394;28;20210;-90
2021/05/19 11:38:33;;;;;;;0.70;0.40;;;;;;;15.67;48.25;100832.72;5063273;28;20052;-88
2021/05/19 11:41:05;;;;;;;0.43;0.40;;;;;;;15.62;49.00;100833.66;5077096;28;20059;-90
2021/05/19 11:43:36;;;;;;;0.30;0.30;;;;;;;15.58;46.37;100838.94;5072770;28;20048;-90
2021/05/19 11:46:04;;;;;;;0.45;0.32;;;;;;;15.94;49.81;100832.63;5067628;28;20044;-91
2021/05/19 11:48:32;;;;;;;0.75;0.30;;;;;;;15.96;48.17;100829.56;5058386;28;20060;-89
2021/05/19 11:51:16;;;;;;;0.77;0.30;;;;;;;15.50;48.88;100827.91;5080462;28;21497;-89
2021/05/19 11:53:59;;;;;;;0.20;0.20;;;;;;;15.39;46.94;100832.81;5062924;28;20436;-90
2021/05/19 11:56:42;;;;;;;0.45;0.40;;;;;;;15.96;48.29;100826.81;5067098;28;20488;-90
2021/05/19 11:59:20;;;;;;;0.40;0.30;;;;;;;15.80;46.46;100824.47;5080162;28;20049;-90
2021/05/19 12:01:57;;;;;;;0.50;0.40;;;;;;;15.39;47.26;100822.63;5060751;28;20049;-90
2021/05/19 12:04:27;;;;;;;0.30;0.30;;;;;;;15.68;49.32;100823.38;5058234;28;20041;-90
2021/05/19 12:07:02;;;;;;;0.45;0.40;;;;;;;16.03;48.97;100821.69;5062979;28;20052;-89
2021/05/19 12:09:38;;;;;;;0.75;0.40;;;;;;;15.60;46.63;100820.22;5056267;28;20052;-89
2021/05/19 12:12:13;;;;;;;0.50;0.40;;;;;;;16.10;46.72;100815.75;5071961;28;20053;-90